Litchfield, California
Current Conditions -  °F | °C
As of 5:15 PM on Friday 24 Oct 2014 (Local Time) from KRTS Reporting Station
Clear Clear  
Wind Chill: 22°   Ceiling: Unl
Heat Index: 22°   Visibility: 10mi
Dew Point: -7°   Wind: 13mph
Humidity: 14%   Direction: 240°WSW
Pressure: 29.99"   Gusts: 22mph
Location:  40.38°N, 120.39°W
Report Text: KRTS 250015Z AUTO 24011G19KT 10SM CLR 22/M07 A2999 RMK AO2
Loading
Personal Weather Stations






























Interactive Weather Map
Tropical Storm Tracking
New forecast layout! Learn more

10-Day Weather Forecast

Advertisements
Track Severe Weather on mobile